Time;durP1;ratioP1;P1;durP2;ratioP2;P2;SDS_P1;SDS_P2;PMS_P1;PMS_P2;Temp;Humidity;BMP_temperature;BMP_pressure;BME280_temperature;BME280_humidity;BME280_pressure;Samples;Min_cycle;Max_cycle;Signal;HPM_P1;HPM_P2
2024/01/10 00:02:04;;;;;;;2.10;1.00;;;0.90;99.90;;;;;;5009191;28;20068;-73
2024/01/10 00:04:31;;;;;;;1.75;1.05;;;0.80;99.90;;;;;;4992938;28;20048;-73
2024/01/10 00:06:58;;;;;;;2.58;0.93;;;0.80;99.90;;;;;;5025248;28;20067;-74
2024/01/10 00:09:25;;;;;;;3.08;1.30;;;0.80;99.90;;;;;;5008731;28;20132;-74
2024/01/10 00:11:51;;;;;;;1.65;1.00;;;0.80;99.90;;;;;;5009604;28;20041;-74
2024/01/10 00:14:18;;;;;;;1.17;0.80;;;0.80;99.90;;;;;;4997436;28;20127;-73
2024/01/10 00:16:45;;;;;;;2.03;1.00;;;0.80;99.90;;;;;;5025500;28;20084;-73
2024/01/10 00:19:12;;;;;;;0.85;0.73;;;0.80;99.90;;;;;;5008978;28;20443;-73
2024/01/10 00:21:39;;;;;;;0.50;0.50;;;0.80;99.90;;;;;;5025469;28;20115;-73
2024/01/10 00:24:06;;;;;;;1.15;0.57;;;0.80;99.90;;;;;;5022383;28;20059;-74
2024/01/10 00:26:34;;;;;;;1.10;0.68;;;0.80;99.90;;;;;;4989956;28;20053;-73
2024/01/10 00:29:01;;;;;;;2.78;0.93;;;0.80;99.90;;;;;;5006052;28;20049;-73
2024/01/10 00:31:31;;;;;;;1.00;0.63;;;0.80;99.90;;;;;;5009341;28;20649;-74
2024/01/10 00:33:58;;;;;;;1.17;0.80;;;0.80;99.90;;;;;;4992393;28;20054;-74
2024/01/10 00:36:26;;;;;;;1.88;0.80;;;0.70;99.90;;;;;;5026428;28;20103;-74
2024/01/10 00:38:53;;;;;;;0.93;0.52;;;0.70;99.90;;;;;;5026082;28;20053;-73
2024/01/10 00:41:20;;;;;;;0.60;0.40;;;0.60;99.90;;;;;;5006648;28;20140;-73
2024/01/10 00:43:47;;;;;;;0.45;0.45;;;0.60;99.90;;;;;;5006160;28;20144;-73
2024/01/10 00:46:14;;;;;;;0.70;0.40;;;0.60;99.90;;;;;;5041266;28;20053;-73
2024/01/10 00:48:41;;;;;;;1.17;0.65;;;0.50;99.90;;;;;;5040624;28;20514;-73
2024/01/10 00:51:08;;;;;;;0.40;0.40;;;0.50;99.90;;;;;;5040848;28;20053;-73
2024/01/10 00:53:38;;;;;;;0.80;0.47;;;0.50;99.90;;;;;;5040509;28;20138;-74
2024/01/10 00:56:06;;;;;;;2.28;0.68;;;0.40;99.90;;;;;;5008734;28;20367;-73
2024/01/10 00:58:33;;;;;;;0.65;0.45;;;0.30;99.90;;;;;;5025699;28;20099;-73
2024/01/10 01:01:00;;;;;;;0.52;0.30;;;0.20;99.90;;;;;;5005921;28;20054;-73
2024/01/10 01:03:27;;;;;;;0.52;0.52;;;0.20;99.90;;;;;;5038622;28;20053;-74
2024/01/10 01:05:54;;;;;;;0.65;0.45;;;0.20;99.90;;;;;;5024270;28;20099;-73
2024/01/10 01:08:21;;;;;;;1.15;0.40;;;0.10;99.90;;;;;;5043227;28;20053;-73
2024/01/10 01:10:48;;;;;;;0.65;0.45;;;0.10;99.90;;;;;;5027654;28;20717;-73
2024/01/10 01:13:15;;;;;;;0.55;0.40;;;0.00;99.90;;;;;;5044546;28;20410;-73
2024/01/10 01:15:42;;;;;;;0.60;0.45;;;0.00;99.90;;;;;;5043867;28;20049;-73
2024/01/10 01:18:12;;;;;;;1.15;0.47;;;-0.10;99.90;;;;;;5044372;28;20049;-74
2024/01/10 01:20:39;;;;;;;0.70;0.50;;;-0.10;99.90;;;;;;5044014;28;20108;-74
2024/01/10 01:23:06;;;;;;;0.73;0.47;;;-0.20;99.90;;;;;;5010824;28;20052;-74
2024/01/10 01:25:33;;;;;;;0.70;0.50;;;-0.20;99.90;;;;;;5045415;28;20049;-73
2024/01/10 01:28:00;;;;;;;0.77;0.60;;;-0.20;99.90;;;;;;5027593;28;20572;-73
2024/01/10 01:30:27;;;;;;;0.55;0.45;;;-0.30;99.90;;;;;;5045771;28;20099;-73
2024/01/10 01:32:54;;;;;;;0.68;0.43;;;-0.30;99.90;;;;;;5027447;28;20102;-73
2024/01/10 01:35:22;;;;;;;1.08;0.47;;;-0.30;99.90;;;;;;5043666;28;20076;-73
2024/01/10 01:37:49;;;;;;;0.60;0.60;;;-0.40;99.90;;;;;;5027625;28;20812;-73
2024/01/10 01:40:18;;;;;;;1.60;0.73;;;-0.40;99.90;;;;;;5027469;28;20111;-73
2024/01/10 01:43:20;;;;;;;1.58;0.85;;;-0.50;99.90;;;;;;5027747;28;20045;-73
2024/01/10 01:45:48;;;;;;;1.05;0.60;;;-0.60;99.90;;;;;;5045173;28;20119;-73
2024/01/10 01:48:15;;;;;;;0.68;0.50;;;-0.60;99.90;;;;;;5026982;28;20049;-73
2024/01/10 01:50:42;;;;;;;0.82;0.47;;;-0.60;99.90;;;;;;5006728;28;20053;-73
2024/01/10 01:53:09;;;;;;;0.75;0.55;;;-0.60;99.90;;;;;;5007086;28;20428;-73
2024/01/10 01:55:36;;;;;;;0.63;0.50;;;-0.60;99.90;;;;;;5025558;28;20045;-73
2024/01/10 01:58:03;;;;;;;0.50;0.40;;;-0.60;99.90;;;;;;5026726;28;20135;-73
2024/01/10 02:00:30;;;;;;;2.65;0.68;;;-0.60;99.90;;;;;;5027452;28;20088;-73
2024/01/10 02:02:58;;;;;;;0.80;0.60;;;-0.70;99.90;;;;;;5047371;28;20672;-73
2024/01/10 02:05:25;;;;;;;1.42;0.65;;;-0.70;1.00;;;;;;5014833;28;20059;-73
2024/01/10 02:07:52;;;;;;;1.42;0.68;;;-0.80;99.90;;;;;;5014737;28;20045;-74
2024/01/10 02:10:19;;;;;;;0.30;0.30;;;-0.80;1.00;;;;;;5014832;28;20080;-73
2024/01/10 02:12:46;;;;;;;0.50;0.50;;;-0.90;1.00;;;;;;5015169;28;20442;-73
2024/01/10 02:15:14;;;;;;;0.40;0.40;;;-0.90;1.00;;;;;;5030732;28;20053;-74
2024/01/10 02:17:41;;;;;;;0.82;0.50;;;-0.90;1.00;;;;;;5031215;28;20048;-73
2024/01/10 02:20:16;;;;;;;0.70;0.50;;;-0.90;1.00;;;;;;5027488;28;20056;-73
2024/01/10 02:22:43;;;;;;;0.50;0.50;;;-1.00;1.00;;;;;;5027271;28;20127;-73
2024/01/10 02:25:11;;;;;;;0.45;0.45;;;-0.90;6.60;;;;;;5016158;28;20140;-73
2024/01/10 02:27:38;;;;;;;0.50;0.50;;;-0.90;1.00;;;;;;5011565;28;20072;-73
2024/01/10 02:30:06;;;;;;;0.40;0.40;;;-0.90;1.00;;;;;;4994778;28;20073;-73
2024/01/10 02:32:33;;;;;;;0.30;0.30;;;-1.00;1.00;;;;;;5027440;28;20041;-73
2024/01/10 02:35:01;;;;;;;0.57;0.40;;;-1.00;1.00;;;;;;5029355;28;20117;-74
2024/01/10 02:37:28;;;;;;;0.52;0.50;;;-1.10;1.00;;;;;;5027748;28;20083;-74
2024/01/10 02:39:55;;;;;;;0.35;0.35;;;-1.10;1.00;;;;;;5032054;28;20151;-73
2024/01/10 02:42:21;;;;;;;0.57;0.40;;;-1.10;1.00;;;;;;5032560;28;20057;-74
2024/01/10 02:44:48;;;;;;;0.47;0.40;;;-1.10;1.00;;;;;;5016004;28;20139;-73
2024/01/10 02:47:16;;;;;;;0.68;0.55;;;-1.10;1.00;;;;;;5047401;28;20041;-73
2024/01/10 02:49:45;;;;;;;0.60;0.60;;;-1.10;5.00;;;;;;5031180;28;20049;-74
2024/01/10 02:52:12;;;;;;;0.60;0.40;;;-1.10;1.00;;;;;;5036345;28;20045;-73
2024/01/10 02:54:39;;;;;;;0.47;0.40;;;-1.20;1.00;;;;;;5047157;28;20490;-73
2024/01/10 02:57:07;;;;;;;0.50;0.50;;;-1.20;1.00;;;;;;5015100;28;20053;-73
2024/01/10 02:59:34;;;;;;;0.95;0.45;;;-1.20;1.00;;;;;;5031041;28;20163;-73
2024/01/10 03:02:01;;;;;;;0.50;0.50;;;-1.30;1.00;;;;;;5031341;28;20056;-73
2024/01/10 03:04:28;;;;;;;0.50;0.50;;;-1.30;1.00;;;;;;5030804;28;20048;-73
2024/01/10 03:06:55;;;;;;;1.05;0.60;;;-1.30;11.80;;;;;;5014058;28;20049;-73
2024/01/10 03:09:23;;;;;;;0.75;0.50;;;-1.30;8.80;;;;;;5030215;28;20090;-73
2024/01/10 03:11:50;;;;;;;0.93;0.40;;;-1.30;1.00;;;;;;5014298;28;20041;-73
2024/01/10 03:14:17;;;;;;;0.57;0.35;;;-1.30;1.00;;;;;;5029336;28;20057;-73
2024/01/10 03:16:44;;;;;;;0.40;0.40;;;-1.40;17.00;;;;;;5027249;28;20050;-73
2024/01/10 03:19:11;;;;;;;0.40;0.40;;;-1.30;26.40;;;;;;5010601;28;20057;-73
2024/01/10 03:21:38;;;;;;;0.80;0.43;;;-1.30;68.00;;;;;;4994149;28;20046;-73
2024/01/10 03:24:05;;;;;;;0.40;0.40;;;-1.30;78.70;;;;;;5026184;28;20053;-73
2024/01/10 03:26:32;;;;;;;0.50;0.40;;;-1.40;92.60;;;;;;5010789;28;20525;-73
2024/01/10 03:28:59;;;;;;;0.70;0.50;;;-1.40;99.90;;;;;;5027060;28;20203;-73
2024/01/10 03:31:28;;;;;;;0.57;0.50;;;-1.40;99.90;;;;;;5010959;28;20073;-73
2024/01/10 03:33:56;;;;;;;0.35;0.35;;;-1.40;99.90;;;;;;5010767;28;20054;-73
2024/01/10 03:36:23;;;;;;;0.60;0.47;;;-1.40;99.90;;;;;;5009788;28;20050;-73
2024/01/10 03:38:50;;;;;;;0.52;0.30;;;-1.40;99.90;;;;;;5009795;28;20052;-73
2024/01/10 03:41:17;;;;;;;0.73;0.30;;;-1.40;99.90;;;;;;5006894;28;20044;-74
2024/01/10 03:43:44;;;;;;;0.47;0.40;;;-1.40;99.90;;;;;;5031309;28;20053;-74
2024/01/10 03:46:12;;;;;;;0.65;0.50;;;-1.40;99.90;;;;;;4992616;28;20057;-74
2024/01/10 03:48:47;;;;;;;0.45;0.40;;;-1.40;99.90;;;;;;5008401;28;20115;-74
2024/01/10 03:51:18;;;;;;;2.17;0.57;;;-1.40;99.90;;;;;;5024842;28;20053;-73
2024/01/10 03:53:45;;;;;;;0.43;0.40;;;-1.40;99.90;;;;;;5007704;28;20053;-74
2024/01/10 03:56:12;;;;;;;0.95;0.70;;;-1.40;99.90;;;;;;4992446;28;20084;-74
2024/01/10 03:58:39;;;;;;;0.38;0.38;;;-1.40;99.90;;;;;;5009075;28;20516;-74
2024/01/10 04:01:07;;;;;;;0.25;0.20;;;-1.40;99.90;;;;;;5010098;28;20049;-74
2024/01/10 04:03:34;;;;;;;0.30;0.30;;;-1.40;99.90;;;;;;4993629;28;20050;-74
2024/01/10 04:06:02;;;;;;;0.35;0.35;;;-1.40;99.90;;;;;;5009309;28;20075;-74
2024/01/10 04:08:29;;;;;;;1.13;0.57;;;-1.30;99.90;;;;;;4993356;28;20065;-74
2024/01/10 04:10:57;;;;;;;0.85;0.60;;;-1.30;1.00;;;;;;4994060;28;20220;-75
2024/01/10 04:13:25;;;;;;;2.95;1.05;;;-1.20;70.50;;;;;;5015762;28;20050;-74
2024/01/10 04:15:52;;;;;;;1.88;0.60;;;-1.10;99.90;;;;;;5026328;28;20103;-73
2024/01/10 04:18:19;;;;;;;3.92;0.85;;;-1.00;99.90;;;;;;5018047;28;20138;-74
2024/01/10 04:20:48;;;;;;;1.95;0.68;;;-0.90;99.90;;;;;;5011487;28;20414;-74
2024/01/10 04:23:14;;;;;;;1.25;0.63;;;-0.90;99.90;;;;;;5024858;28;20077;-74
2024/01/10 04:25:42;;;;;;;5.07;0.95;;;-0.80;42.70;;;;;;5009547;28;20049;-74
2024/01/10 04:28:10;;;;;;;0.85;0.50;;;-0.80;52.40;;;;;;5009627;28;20147;-74
2024/01/10 04:30:36;;;;;;;1.90;0.63;;;-0.80;57.60;;;;;;5025887;28;20085;-74
2024/01/10 04:33:04;;;;;;;1.85;0.70;;;-0.80;1.60;;;;;;5012103;28;20045;-74
2024/01/10 04:35:31;;;;;;;1.63;0.82;;;-0.70;1.00;;;;;;5028971;28;20759;-74
2024/01/10 04:37:58;;;;;;;1.83;0.80;;;-0.70;1.00;;;;;;5028831;28;20084;-73
2024/01/10 04:40:25;;;;;;;2.03;0.98;;;-0.70;1.00;;;;;;5045837;28;20055;-74
2024/01/10 04:42:52;;;;;;;1.92;0.85;;;-0.70;20.00;;;;;;5012663;28;20064;-74
2024/01/10 04:45:19;;;;;;;0.75;0.60;;;-0.60;1.00;;;;;;5013216;28;20406;-75
2024/01/10 04:47:46;;;;;;;1.23;0.60;;;-0.60;1.00;;;;;;5012982;28;20051;-74
2024/01/10 04:50:13;;;;;;;1.58;0.50;;;-0.50;1.00;;;;;;5028561;28;20137;-74
2024/01/10 04:52:41;;;;;;;1.85;0.82;;;-0.50;1.00;;;;;;5009559;28;20045;-74
2024/01/10 04:55:08;;;;;;;2.30;0.90;;;-0.40;1.00;;;;;;5008592;28;20049;-75
2024/01/10 04:57:35;;;;;;;1.33;0.68;;;-0.40;99.90;;;;;;5008923;28;20180;-73
2024/01/10 05:00:06;;;;;;;1.23;0.60;;;-0.40;99.90;;;;;;5008782;28;20052;-74
2024/01/10 05:02:33;;;;;;;1.98;0.70;;;-0.40;99.90;;;;;;5008763;28;20422;-74
2024/01/10 05:05:00;;;;;;;1.13;0.55;;;-0.40;1.00;;;;;;5009240;28;20464;-73
2024/01/10 05:07:28;;;;;;;0.95;0.60;;;-0.40;1.00;;;;;;5024562;28;20107;-75
2024/01/10 05:09:55;;;;;;;1.83;0.80;;;-0.40;1.00;;;;;;4991982;28;20050;-74
2024/01/10 05:12:22;;;;;;;1.75;0.95;;;-0.40;99.90;;;;;;4992511;28;20046;-74
2024/01/10 05:14:49;;;;;;;1.25;0.80;;;-0.40;99.90;;;;;;5030994;28;20053;-75
2024/01/10 05:17:15;;;;;;;3.30;0.70;;;-0.30;99.90;;;;;;5028265;28;20498;-73
2024/01/10 05:19:42;;;;;;;4.07;1.13;;;-0.30;99.90;;;;;;5011757;28;20079;-74
2024/01/10 05:22:09;;;;;;;1.85;0.73;;;-0.30;99.90;;;;;;5011768;28;20490;-74
2024/01/10 05:24:36;;;;;;;2.00;0.73;;;-0.20;99.90;;;;;;5027888;28;20044;-74
2024/01/10 05:27:04;;;;;;;1.67;0.80;;;-0.30;99.90;;;;;;5028552;28;20477;-74
2024/01/10 05:29:31;;;;;;;2.63;0.90;;;-0.20;99.90;;;;;;5045310;28;20049;-74
2024/01/10 05:31:58;;;;;;;1.98;0.88;;;-0.30;99.90;;;;;;5044692;28;20045;-74
2024/01/10 05:34:25;;;;;;;2.55;0.90;;;-0.30;99.90;;;;;;5044031;28;20509;-74
2024/01/10 05:36:52;;;;;;;5.03;1.58;;;-0.30;99.90;;;;;;5026938;28;20053;-73
2024/01/10 05:39:21;;;;;;;2.60;1.50;;;-0.30;99.90;;;;;;5044348;28;20075;-74
2024/01/10 05:41:50;;;;;;;5.72;1.17;;;-0.30;99.90;;;;;;5012653;28;20132;-74
2024/01/10 05:44:18;;;;;;;3.35;1.20;;;-0.30;99.90;;;;;;5044474;28;20557;-74
2024/01/10 05:46:45;;;;;;;4.25;1.17;;;-0.30;99.90;;;;;;5044858;28;20086;-73
2024/01/10 05:49:12;;;;;;;5.28;1.75;;;-0.30;99.90;;;;;;5027247;28;20064;-73
2024/01/10 05:51:40;;;;;;;3.58;1.42;;;-0.30;99.90;;;;;;4989769;28;20147;-74
2024/01/10 05:54:07;;;;;;;3.65;1.10;;;-0.30;99.90;;;;;;5018866;28;20199;-74
2024/01/10 05:56:34;;;;;;;4.05;1.10;;;-0.30;99.90;;;;;;5009624;28;20055;-73
2024/01/10 05:59:01;;;;;;;3.03;1.40;;;-0.30;99.90;;;;;;5009396;28;20049;-74
2024/01/10 06:01:29;;;;;;;3.65;1.67;;;-0.20;99.90;;;;;;5042239;28;20114;-74
2024/01/10 06:03:56;;;;;;;3.80;1.48;;;-0.30;99.90;;;;;;5021974;28;20130;-74
2024/01/10 06:06:23;;;;;;;3.20;1.10;;;-0.20;99.90;;;;;;5023554;28;20053;-74
2024/01/10 06:08:50;;;;;;;4.28;1.23;;;-0.20;99.90;;;;;;5008614;28;20053;-74
2024/01/10 06:11:18;;;;;;;4.88;1.20;;;-0.20;96.40;;;;;;5027416;28;20041;-74
2024/01/10 06:13:45;;;;;;;2.65;1.20;;;-0.20;49.30;;;;;;5026576;28;20126;-74
2024/01/10 06:16:23;;;;;;;4.85;1.23;;;-0.20;1.00;;;;;;5029028;28;20060;-74
2024/01/10 06:18:50;;;;;;;2.17;1.00;;;-0.20;1.00;;;;;;5026533;28;20477;-74
2024/01/10 06:21:17;;;;;;;4.18;0.90;;;-0.20;1.00;;;;;;5026988;28;20049;-74
2024/01/10 06:23:44;;;;;;;4.03;1.70;;;-0.20;1.00;;;;;;5024521;28;20049;-74
2024/01/10 06:26:11;;;;;;;1.58;0.90;;;-0.20;1.00;;;;;;5040742;28;20059;-73
2024/01/10 06:28:39;;;;;;;4.88;1.02;;;-0.20;1.00;;;;;;5019871;28;20050;-74
2024/01/10 06:31:06;;;;;;;3.15;0.90;;;-0.20;1.00;;;;;;5021748;28;20156;-73
2024/01/10 06:33:38;;;;;;;1.95;0.93;;;-0.20;1.00;;;;;;5004322;28;20463;-74
2024/01/10 06:36:05;;;;;;;3.63;1.25;;;-0.20;99.90;;;;;;5021041;28;20049;-73
2024/01/10 06:38:32;;;;;;;3.05;1.00;;;-0.20;99.90;;;;;;5010221;28;20049;-73
2024/01/10 06:40:59;;;;;;;3.45;0.90;;;-0.20;99.90;;;;;;4998754;28;20124;-74
2024/01/10 06:43:26;;;;;;;1.20;0.88;;;-0.20;99.90;;;;;;5016107;28;20114;-74
2024/01/10 06:45:53;;;;;;;2.60;1.10;;;-0.20;99.90;;;;;;5011205;28;20098;-73
2024/01/10 06:48:19;;;;;;;5.20;1.17;;;-0.20;99.90;;;;;;5014899;28;20452;-73
2024/01/10 06:50:46;;;;;;;2.72;1.10;;;-0.20;99.90;;;;;;4997945;28;20088;-72
2024/01/10 06:53:13;;;;;;;3.47;1.58;;;-0.20;99.90;;;;;;5033078;28;20461;-73
2024/01/10 06:55:41;;;;;;;2.92;1.40;;;-0.20;99.90;;;;;;5033635;28;20094;-74
2024/01/10 06:58:08;;;;;;;2.17;1.20;;;-0.20;99.90;;;;;;5028078;28;20099;-74
2024/01/10 07:00:34;;;;;;;2.17;1.00;;;-0.20;99.90;;;;;;5027184;28;20067;-73
2024/01/10 07:03:02;;;;;;;2.15;1.10;;;-0.30;99.90;;;;;;5022549;28;20406;-73
2024/01/10 07:05:31;;;;;;;4.82;1.30;;;-0.30;99.90;;;;;;5035718;28;20042;-74
2024/01/10 07:07:59;;;;;;;2.92;1.15;;;-0.30;99.90;;;;;;5038581;28;20045;-73
2024/01/10 07:10:27;;;;;;;2.35;1.30;;;-0.30;99.90;;;;;;5019761;28;20041;-74
2024/01/10 07:12:55;;;;;;;1.60;0.90;;;-0.30;99.90;;;;;;5038829;28;20644;-72
2024/01/10 07:15:22;;;;;;;2.75;1.25;;;-0.30;99.90;;;;;;4999544;28;20309;-73
2024/01/10 07:17:49;;;;;;;1.77;1.25;;;-0.30;99.90;;;;;;5020752;28;20742;-73
2024/01/10 07:20:16;;;;;;;5.43;3.80;;;-0.30;99.90;;;;;;5004782;28;20045;-75
2024/01/10 07:22:43;;;;;;;4.65;1.20;;;-0.30;99.90;;;;;;5036153;28;20049;-73
2024/01/10 07:25:14;;;;;;;3.65;1.20;;;-0.30;99.90;;;;;;5005196;28;20045;-73
2024/01/10 07:27:41;;;;;;;2.70;1.38;;;-0.30;99.90;;;;;;5015048;28;20080;-74
2024/01/10 07:30:14;;;;;;;3.08;1.45;;;-0.30;99.90;;;;;;5014603;28;20081;-75
2024/01/10 07:32:46;;;;;;;2.55;1.00;;;-0.30;99.90;;;;;;5000639;28;20422;-75
2024/01/10 07:35:16;;;;;;;1.67;0.80;;;-0.40;99.90;;;;;;5032543;28;20053;-75
2024/01/10 07:37:43;;;;;;;1.48;0.70;;;-0.40;99.90;;;;;;5019117;28;20065;-74
2024/01/10 07:40:10;;;;;;;1.30;0.80;;;-0.40;99.90;;;;;;5019218;28;20727;-75
2024/01/10 07:42:39;;;;;;;1.77;0.80;;;-0.40;99.90;;;;;;5020007;28;20102;-74
2024/01/10 07:45:06;;;;;;;1.45;1.08;;;-0.40;99.90;;;;;;5012128;28;20049;-74
2024/01/10 07:47:39;;;;;;;4.80;1.30;;;-0.40;99.90;;;;;;5035098;28;20627;-74
2024/01/10 07:50:12;;;;;;;2.38;1.10;;;-0.50;99.90;;;;;;5019697;28;20049;-74
2024/01/10 07:52:40;;;;;;;3.65;0.90;;;-0.40;99.90;;;;;;5004286;28;20058;-74
2024/01/10 07:55:08;;;;;;;3.25;0.80;;;-0.40;99.90;;;;;;5000677;28;20069;-74
2024/01/10 07:57:36;;;;;;;2.78;1.20;;;-0.40;99.90;;;;;;5004832;28;20128;-74
2024/01/10 08:00:10;;;;;;;3.30;1.02;;;-0.30;99.90;;;;;;5002355;28;20560;-74
2024/01/10 08:02:37;;;;;;;3.53;1.30;;;-0.30;99.90;;;;;;4998345;28;20053;-74
2024/01/10 08:05:05;;;;;;;2.88;1.77;;;-0.20;99.90;;;;;;5012996;28;20088;-74
2024/01/10 08:07:36;;;;;;;4.18;2.00;;;-0.20;99.90;;;;;;5018346;28;20045;-75
2024/01/10 08:10:09;;;;;;;2.35;1.42;;;-0.10;99.90;;;;;;5039093;28;20056;-74
2024/01/10 08:12:38;;;;;;;3.00;1.30;;;-0.10;99.90;;;;;;5004185;28;20087;-74
2024/01/10 08:15:06;;;;;;;4.40;1.20;;;0.00;99.90;;;;;;5004882;28;20040;-74
2024/01/10 08:17:33;;;;;;;4.35;1.30;;;0.00;99.90;;;;;;5038275;28;20447;-74
2024/01/10 08:20:00;;;;;;;1.52;0.80;;;0.10;99.90;;;;;;5005000;28;20068;-73
2024/01/10 08:22:27;;;;;;;2.10;1.00;;;0.10;99.90;;;;;;5003814;28;20063;-74
2024/01/10 08:24:55;;;;;;;2.53;1.30;;;0.10;99.90;;;;;;5007210;28;20041;-74
2024/01/10 08:27:23;;;;;;;3.20;1.30;;;0.10;99.90;;;;;;5005130;28;20407;-74
2024/01/10 08:29:51;;;;;;;2.33;1.02;;;0.10;99.90;;;;;;5016468;28;20131;-74
2024/01/10 08:32:20;;;;;;;1.52;0.80;;;0.10;99.90;;;;;;5022856;28;20049;-74
2024/01/10 08:34:48;;;;;;;1.40;0.98;;;0.10;99.90;;;;;;5033745;28;20049;-74
2024/01/10 08:37:17;;;;;;;2.20;0.85;;;0.10;99.90;;;;;;5032885;28;20037;-74
2024/01/10 08:39:44;;;;;;;1.50;1.10;;;0.20;99.90;;;;;;5038763;28;20068;-73
2024/01/10 08:42:11;;;;;;;2.65;0.82;;;0.20;99.90;;;;;;5024714;28;20053;-73
2024/01/10 08:44:38;;;;;;;2.78;1.20;;;0.20;99.90;;;;;;5007637;28;20462;-73
2024/01/10 08:47:05;;;;;;;3.47;0.95;;;0.30;99.90;;;;;;5026215;28;20103;-73
2024/01/10 08:49:33;;;;;;;1.00;0.70;;;0.30;99.90;;;;;;5002716;28;20041;-73
2024/01/10 08:52:00;;;;;;;2.90;0.60;;;0.40;99.90;;;;;;5032118;28;20570;-73
2024/01/10 08:54:28;;;;;;;1.85;0.70;;;0.40;99.90;;;;;;5033941;28;20199;-73
2024/01/10 08:56:55;;;;;;;2.60;1.17;;;0.50;99.90;;;;;;5020194;28;20057;-74
2024/01/10 08:59:24;;;;;;;3.17;1.00;;;0.50;99.90;;;;;;5001836;28;20495;-73
2024/01/10 09:01:52;;;;;;;3.20;1.10;;;0.60;99.90;;;;;;5032378;28;20045;-72
2024/01/10 09:04:19;;;;;;;2.83;1.38;;;0.60;93.80;;;;;;5016027;28;20793;-73
2024/01/10 09:06:47;;;;;;;1.77;1.02;;;0.70;89.80;;;;;;5018772;28;20057;-73
2024/01/10 09:09:14;;;;;;;7.50;1.45;;;0.70;90.60;;;;;;5006786;28;20052;-72
2024/01/10 09:11:41;;;;;;;5.05;1.75;;;0.80;88.10;;;;;;5018182;28;20080;-72
2024/01/10 09:14:11;;;;;;;3.90;1.70;;;0.80;97.60;;;;;;5035450;28;20144;-73
2024/01/10 09:16:38;;;;;;;2.65;1.55;;;0.90;94.70;;;;;;5039329;28;20120;-72
2024/01/10 09:19:05;;;;;;;4.78;1.65;;;0.90;94.60;;;;;;5040779;28;20053;-73
2024/01/10 09:21:36;;;;;;;3.28;1.05;;;1.00;91.60;;;;;;5023783;28;20049;-73
2024/01/10 09:24:08;;;;;;;3.50;1.13;;;1.00;87.00;;;;;;5033763;28;20075;-73
2024/01/10 09:26:53;;;;;;;2.53;0.90;;;1.10;81.80;;;;;;5031937;28;20329;-73
2024/01/10 09:29:21;;;;;;;1.77;0.88;;;1.10;83.40;;;;;;4993586;28;20415;-73
2024/01/10 09:31:48;;;;;;;3.47;1.23;;;1.20;81.30;;;;;;5019106;28;20112;-73
2024/01/10 09:34:15;;;;;;;3.78;1.30;;;1.30;92.20;;;;;;5015444;28;20046;-73
2024/01/10 09:36:42;;;;;;;5.90;2.58;;;1.30;99.90;;;;;;5019031;28;20099;-73
2024/01/10 09:39:13;;;;;;;5.45;2.33;;;1.40;95.10;;;;;;5036596;28;20045;-73
2024/01/10 09:41:50;;;;;;;4.47;1.73;;;1.40;87.30;;;;;;5012611;28;20052;-73
2024/01/10 09:44:18;;;;;;;4.88;1.60;;;1.50;75.00;;;;;;5020230;28;20057;-73
2024/01/10 09:46:50;;;;;;;5.93;2.00;;;1.50;76.60;;;;;;5023851;28;20096;-73
2024/01/10 09:49:17;;;;;;;4.63;1.55;;;1.60;66.60;;;;;;5020294;28;20052;-73
2024/01/10 09:51:46;;;;;;;3.13;1.42;;;1.60;57.10;;;;;;5020616;28;20056;-73
2024/01/10 09:54:12;;;;;;;2.15;1.17;;;1.70;63.00;;;;;;5024940;28;20044;-73
2024/01/10 09:56:39;;;;;;;1.80;0.90;;;1.70;53.00;;;;;;5004348;28;20068;-73
2024/01/10 09:59:07;;;;;;;1.92;1.02;;;1.80;58.20;;;;;;5005070;28;20060;-73
2024/01/10 10:01:34;;;;;;;4.88;1.45;;;1.90;58.50;;;;;;5004706;28;20142;-73
2024/01/10 10:04:01;;;;;;;2.25;0.93;;;1.90;54.30;;;;;;4999896;28;20056;-73
2024/01/10 10:06:28;;;;;;;2.95;0.98;;;1.90;55.00;;;;;;5027167;28;20049;-73
2024/01/10 10:08:55;;;;;;;2.80;1.10;;;2.00;47.80;;;;;;5042902;28;20049;-73
2024/01/10 10:11:22;;;;;;;4.50;1.30;;;2.00;45.80;;;;;;5045303;28;20096;-73
2024/01/10 10:13:49;;;;;;;3.20;1.05;;;2.10;40.60;;;;;;5026916;28;20056;-73
2024/01/10 10:16:23;;;;;;;1.98;0.90;;;2.10;46.30;;;;;;5027231;28;20045;-73
2024/01/10 10:18:50;;;;;;;3.78;1.10;;;2.20;38.10;;;;;;5027233;28;20056;-73
2024/01/10 10:21:18;;;;;;;3.05;1.00;;;2.20;26.20;;;;;;5011175;28;20053;-73
2024/01/10 10:23:59;;;;;;;2.10;0.93;;;2.30;41.60;;;;;;5045951;28;20632;-73
2024/01/10 10:26:26;;;;;;;1.55;0.88;;;2.40;29.00;;;;;;5045108;28;20096;-73
2024/01/10 10:28:55;;;;;;;2.42;0.80;;;2.40;20.30;;;;;;5044322;28;20052;-73
2024/01/10 10:31:23;;;;;;;2.60;1.45;;;2.50;25.00;;;;;;5045575;28;20045;-73
2024/01/10 10:33:53;;;;;;;1.40;0.88;;;2.50;24.60;;;;;;5011002;28;20502;-73
2024/01/10 10:36:20;;;;;;;2.47;1.25;;;2.60;22.30;;;;;;5027701;28;20155;-73
2024/01/10 10:38:50;;;;;;;1.80;1.23;;;2.60;18.50;;;;;;5010890;28;20064;-73
2024/01/10 10:41:18;;;;;;;3.22;1.38;;;2.70;14.70;;;;;;5028357;28;20111;-73
2024/01/10 10:43:45;;;;;;;3.88;1.52;;;2.80;21.80;;;;;;5030420;28;20068;-73
2024/01/10 10:46:16;;;;;;;3.92;1.65;;;2.80;24.60;;;;;;5031089;28;20048;-73
2024/01/10 10:48:43;;;;;;;3.03;1.35;;;2.90;27.30;;;;;;5031361;28;20138;-73
2024/01/10 10:51:24;;;;;;;3.42;1.20;;;2.90;16.90;;;;;;5030131;28;20052;-73
2024/01/10 10:53:51;;;;;;;4.68;1.10;;;2.90;26.60;;;;;;5029766;28;20071;-73
2024/01/10 10:56:18;;;;;;;2.75;1.30;;;3.00;23.50;;;;;;5014442;28;20056;-73
2024/01/10 10:58:45;;;;;;;2.05;1.10;;;3.00;35.00;;;;;;5030460;28;20057;-73
2024/01/10 11:01:12;;;;;;;2.42;0.98;;;3.10;47.20;;;;;;5046914;28;20053;-73
2024/01/10 11:03:41;;;;;;;1.92;0.70;;;3.10;47.50;;;;;;5046589;28;20075;-73
2024/01/10 11:06:09;;;;;;;1.83;0.90;;;3.20;43.70;;;;;;5045860;28;20498;-74
2024/01/10 11:08:46;;;;;;;2.92;1.00;;;3.20;50.20;;;;;;5047579;28;20045;-73
2024/01/10 11:11:34;;;;;;;1.20;0.63;;;3.30;60.40;;;;;;5015308;28;20049;-73
2024/01/10 11:14:13;;;;;;;4.85;1.40;;;3.30;50.00;;;;;;5046016;28;20191;-73
2024/01/10 11:17:37;;;;;;;2.13;1.00;;;3.40;68.70;;;;;;5046457;28;20522;-73
2024/01/10 11:20:04;;;;;;;3.58;1.63;;;3.40;70.20;;;;;;4985801;28;20051;-73
2024/01/10 11:22:31;;;;;;;1.95;0.88;;;3.50;54.80;;;;;;4985602;28;20130;-73
2024/01/10 11:24:57;;;;;;;4.15;1.48;;;3.50;58.60;;;;;;5018330;28;20044;-73
2024/01/10 11:27:27;;;;;;;2.20;0.90;;;3.60;58.10;;;;;;5043074;28;20590;-73
2024/01/10 11:29:56;;;;;;;4.18;1.13;;;3.60;69.60;;;;;;5045381;28;20102;-73
2024/01/10 11:32:23;;;;;;;5.15;1.38;;;3.60;70.40;;;;;;5047573;28;20057;-73
2024/01/10 11:34:53;;;;;;;4.30;1.35;;;3.70;72.60;;;;;;5047633;28;20049;-73
2024/01/10 11:37:20;;;;;;;3.20;1.10;;;3.80;69.10;;;;;;5046067;28;20130;-73
2024/01/10 11:39:47;;;;;;;1.65;0.90;;;3.80;69.50;;;;;;5042106;28;20049;-73
2024/01/10 11:42:24;;;;;;;1.75;1.08;;;3.90;58.60;;;;;;5010930;28;20459;-73
2024/01/10 11:44:51;;;;;;;2.70;1.05;;;3.90;64.20;;;;;;5045689;28;20654;-73
2024/01/10 11:47:19;;;;;;;1.95;1.15;;;4.00;66.50;;;;;;5046471;28;20053;-74
2024/01/10 11:49:57;;;;;;;3.45;1.50;;;4.00;72.20;;;;;;5029735;28;20091;-73
2024/01/10 11:52:25;;;;;;;2.95;1.60;;;4.10;72.60;;;;;;5029563;28;20491;-73
2024/01/10 11:54:52;;;;;;;5.05;1.63;;;4.20;79.70;;;;;;5009408;28;20099;-74
2024/01/10 11:57:21;;;;;;;3.97;1.50;;;4.20;74.50;;;;;;5016388;28;20057;-73
2024/01/10 11:59:52;;;;;;;3.97;1.10;;;4.30;70.10;;;;;;5012730;28;20075;-74
2024/01/10 12:02:19;;;;;;;2.75;1.30;;;4.30;72.20;;;;;;5013295;28;20057;-73
2024/01/10 12:04:46;;;;;;;3.92;1.27;;;4.40;74.10;;;;;;5028756;28;20053;-74
2024/01/10 12:07:18;;;;;;;2.85;1.23;;;4.50;91.70;;;;;;5045439;28;20049;-74
2024/01/10 12:09:46;;;;;;;3.72;1.23;;;4.50;90.10;;;;;;5028352;28;20090;-74
2024/01/10 12:12:13;;;;;;;3.38;1.17;;;4.60;92.60;;;;;;5012726;28;20049;-74
2024/01/10 12:14:41;;;;;;;4.07;1.67;;;4.60;89.60;;;;;;5028535;28;20049;-74
2024/01/10 12:17:08;;;;;;;3.67;1.20;;;4.70;79.20;;;;;;5045918;28;20057;-73
2024/01/10 12:19:36;;;;;;;4.80;1.60;;;4.80;77.40;;;;;;5047210;28;20053;-73
2024/01/10 12:22:05;;;;;;;3.10;1.38;;;4.90;79.00;;;;;;5046984;28;20138;-73
2024/01/10 12:24:34;;;;;;;2.40;1.02;;;4.90;91.60;;;;;;5042094;28;20052;-74
2024/01/10 12:27:01;;;;;;;3.70;1.30;;;5.10;91.90;;;;;;5041736;28;20045;-74
2024/01/10 12:29:28;;;;;;;2.85;1.45;;;5.20;87.70;;;;;;5027057;28;20103;-73
2024/01/10 12:31:56;;;;;;;2.72;1.30;;;5.30;93.90;;;;;;5046334;28;20604;-73
2024/01/10 12:34:22;;;;;;;2.60;1.60;;;5.40;99.90;;;;;;5046547;28;20176;-74
2024/01/10 12:36:49;;;;;;;6.18;2.67;;;5.60;97.10;;;;;;5044522;28;20049;-74
2024/01/10 12:39:16;;;;;;;2.75;1.48;;;5.60;99.90;;;;;;5024660;28;20458;-74
2024/01/10 12:41:44;;;;;;;3.35;1.40;;;5.70;99.90;;;;;;5005981;28;20500;-73
2024/01/10 12:44:11;;;;;;;3.25;1.40;;;5.70;99.90;;;;;;5038628;28;20132;-74
2024/01/10 12:46:50;;;;;;;2.95;1.50;;;5.90;99.90;;;;;;5042163;28;20143;-73
2024/01/10 12:49:17;;;;;;;2.95;1.45;;;6.00;99.90;;;;;;5044959;28;20117;-74
2024/01/10 12:51:44;;;;;;;2.45;1.45;;;6.10;99.90;;;;;;5028236;28;20458;-73
2024/01/10 12:54:11;;;;;;;3.28;1.50;;;6.20;99.90;;;;;;5044123;28;20041;-73
2024/01/10 12:56:38;;;;;;;4.78;2.10;;;6.40;99.90;;;;;;5028687;28;20049;-73
2024/01/10 12:59:05;;;;;;;5.50;2.22;;;6.40;99.90;;;;;;5044156;28;20106;-73